sensor_id;sensor_type;location;lat;lon;timestamp;pressure;altitude;pressure_sealevel;temperature;humidity
11806;BME280;5960;42.602;23.482;2022-10-31T00:01:20;93881.53;;;15.30;50.41
11806;BME280;5960;42.602;23.482;2022-10-31T00:03:46;93874.41;;;15.24;50.79
11806;BME280;5960;42.602;23.482;2022-10-31T00:06:14;93880.09;;;15.28;50.89
11806;BME280;5960;42.602;23.482;2022-10-31T00:08:43;93864.41;;;15.06;51.62
11806;BME280;5960;42.602;23.482;2022-10-31T00:11:10;93858.91;;;15.08;51.77
11806;BME280;5960;42.602;23.482;2022-10-31T00:13:37;93866.44;;;15.11;51.65
11806;BME280;5960;42.602;23.482;2022-10-31T00:16:13;93868.09;;;15.18;51.69
11806;BME280;5960;42.602;23.482;2022-10-31T00:18:40;93867.22;;;15.25;51.70
11806;BME280;5960;42.602;23.482;2022-10-31T00:21:06;93874.59;;;15.29;51.49
11806;BME280;5960;42.602;23.482;2022-10-31T00:23:33;93876.63;;;15.34;51.50
11806;BME280;5960;42.602;23.482;2022-10-31T00:26:00;93868.25;;;15.30;51.37
11806;BME280;5960;42.602;23.482;2022-10-31T00:28:28;93864.97;;;15.35;51.54
11806;BME280;5960;42.602;23.482;2022-10-31T00:30:58;93869.88;;;15.38;51.58
11806;BME280;5960;42.602;23.482;2022-10-31T00:33:26;93872.91;;;15.42;51.47
11806;BME280;5960;42.602;23.482;2022-10-31T00:35:53;93867.38;;;15.50;51.27
11806;BME280;5960;42.602;23.482;2022-10-31T00:38:20;93870.03;;;15.50;51.44
11806;BME280;5960;42.602;23.482;2022-10-31T00:40:47;93865.94;;;15.47;51.44
11806;BME280;5960;42.602;23.482;2022-10-31T00:43:14;93867.19;;;15.45;51.60
11806;BME280;5960;42.602;23.482;2022-10-31T00:45:41;93862.72;;;15.39;51.67
11806;BME280;5960;42.602;23.482;2022-10-31T00:48:08;93862.72;;;15.32;52.22
11806;BME280;5960;42.602;23.482;2022-10-31T00:50:37;93870.53;;;15.20;52.54
11806;BME280;5960;42.602;23.482;2022-10-31T00:53:04;93869.69;;;15.26;52.50
11806;BME280;5960;42.602;23.482;2022-10-31T00:55:31;93874.59;;;15.29;52.49
11806;BME280;5960;42.602;23.482;2022-10-31T00:57:58;93866.81;;;15.34;52.33
11806;BME280;5960;42.602;23.482;2022-10-31T01:00:24;93867.66;;;15.28;52.43
11806;BME280;5960;42.602;23.482;2022-10-31T01:02:51;93861.69;;;15.40;52.42
11806;BME280;5960;42.602;23.482;2022-10-31T01:05:18;93867.22;;;15.38;52.39
11806;BME280;5960;42.602;23.482;2022-10-31T01:07:46;93867.41;;;15.37;52.37
11806;BME280;5960;42.602;23.482;2022-10-31T01:10:13;93867.81;;;15.33;52.62
11806;BME280;5960;42.602;23.482;2022-10-31T01:12:42;93870.47;;;15.33;52.64
11806;BME280;5960;42.602;23.482;2022-10-31T01:15:10;93869.66;;;15.40;52.27
11806;BME280;5960;42.602;23.482;2022-10-31T01:17:37;93867.81;;;15.33;52.78
11806;BME280;5960;42.602;23.482;2022-10-31T01:20:05;93869.03;;;15.38;53.07
11806;BME280;5960;42.602;23.482;2022-10-31T01:22:33;93877.66;;;15.26;53.10
11806;BME280;5960;42.602;23.482;2022-10-31T01:25:02;93871.13;;;15.22;53.09
11806;BME280;5960;42.602;23.482;2022-10-31T01:27:29;93856.63;;;15.18;53.34
11806;BME280;5960;42.602;23.482;2022-10-31T01:29:57;93871.13;;;15.22;52.88
11806;BME280;5960;42.602;23.482;2022-10-31T01:32:24;93875.81;;;15.20;53.30
11806;BME280;5960;42.602;23.482;2022-10-31T01:34:50;93882.34;;;15.24;53.36
11806;BME280;5960;42.602;23.482;2022-10-31T01:37:17;93880.31;;;15.26;53.21
11806;BME280;5960;42.602;23.482;2022-10-31T01:39:44;93883.34;;;15.30;53.28
11806;BME280;5960;42.602;23.482;2022-10-31T01:42:18;93871.94;;;15.23;53.49
11806;BME280;5960;42.602;23.482;2022-10-31T01:44:56;93876.03;;;15.25;53.51
11806;BME280;5960;42.602;23.482;2022-10-31T01:47:34;93868.84;;;15.32;53.46
11806;BME280;5960;42.602;23.482;2022-10-31T01:50:04;93873.97;;;15.27;53.58
11806;BME280;5960;42.602;23.482;2022-10-31T01:52:36;93883.97;;;15.32;53.59
11806;BME280;5960;42.602;23.482;2022-10-31T01:55:06;93878.44;;;15.33;53.61
11806;BME280;5960;42.602;23.482;2022-10-31T01:57:37;93889.25;;;15.39;53.78
11806;BME280;5960;42.602;23.482;2022-10-31T02:00:08;93883.56;;;15.35;53.50
11806;BME280;5960;42.602;23.482;2022-10-31T02:02:35;93883.94;;;15.39;53.64
11806;BME280;5960;42.602;23.482;2022-10-31T02:05:05;93885.22;;;15.29;53.67
11806;BME280;5960;42.602;23.482;2022-10-31T02:07:37;93884.59;;;15.20;54.05
11806;BME280;5960;42.602;23.482;2022-10-31T02:10:06;93884.19;;;15.17;54.34
11806;BME280;5960;42.602;23.482;2022-10-31T02:12:35;93880.72;;;15.10;54.50
11806;BME280;5960;42.602;23.482;2022-10-31T02:15:04;93879.72;;;15.17;54.69
11806;BME280;5960;42.602;23.482;2022-10-31T02:17:31;93869.72;;;15.19;54.63
11806;BME280;5960;42.602;23.482;2022-10-31T02:20:07;93880.13;;;15.21;55.01
11806;BME280;5960;42.602;23.482;2022-10-31T02:22:42;93874.59;;;15.23;55.14
11806;BME280;5960;42.602;23.482;2022-10-31T02:25:28;93884.78;;;15.26;55.42
11806;BME280;5960;42.602;23.482;2022-10-31T02:28:25;93885.63;;;15.26;55.52
11806;BME280;5960;42.602;23.482;2022-10-31T02:31:11;93886.84;;;15.24;55.59
11806;BME280;5960;42.602;23.482;2022-10-31T02:33:45;93890.94;;;15.26;55.59
11806;BME280;5960;42.602;23.482;2022-10-31T02:36:21;93891.72;;;15.33;55.35
11806;BME280;5960;42.602;23.482;2022-10-31T02:38:52;93888.44;;;15.31;55.43
11806;BME280;5960;42.602;23.482;2022-10-31T02:41:28;93897.84;;;15.41;55.19
11806;BME280;5960;42.602;23.482;2022-10-31T02:44:05;93890.06;;;15.46;55.11
11806;BME280;5960;42.602;23.482;2022-10-31T02:46:39;93891.69;;;15.54;54.91
11806;BME280;5960;42.602;23.482;2022-10-31T02:49:15;93905.78;;;15.54;54.92
11806;BME280;5960;42.602;23.482;2022-10-31T02:51:45;93900.88;;;15.51;55.19
11806;BME280;5960;42.602;23.482;2022-10-31T02:54:18;93896.19;;;15.53;54.94
11806;BME280;5960;42.602;23.482;2022-10-31T02:56:46;93893.72;;;15.52;55.06
11806;BME280;5960;42.602;23.482;2022-10-31T02:59:13;93897.00;;;15.54;54.81
11806;BME280;5960;42.602;23.482;2022-10-31T03:01:52;93901.06;;;15.56;54.90
11806;BME280;5960;42.602;23.482;2022-10-31T03:07:22;93893.91;;;15.57;55.17
11806;BME280;5960;42.602;23.482;2022-10-31T03:09:59;93899.41;;;15.55;55.11
11806;BME280;5960;42.602;23.482;2022-10-31T03:12:33;93893.91;;;15.57;55.35
11806;BME280;5960;42.602;23.482;2022-10-31T03:15:12;93894.34;;;15.54;54.79
11806;BME280;5960;42.602;23.482;2022-10-31T03:17:50;93899.44;;;15.48;55.24
11806;BME280;5960;42.602;23.482;2022-10-31T03:20:22;93896.38;;;15.52;55.28
11806;BME280;5960;42.602;23.482;2022-10-31T03:22:51;93905.97;;;15.53;55.25
11806;BME280;5960;42.602;23.482;2022-10-31T03:25:19;93903.13;;;15.54;55.31
11806;BME280;5960;42.602;23.482;2022-10-31T03:27:46;93900.22;;;15.62;55.09
11806;BME280;5960;42.602;23.482;2022-10-31T03:30:14;93896.97;;;15.60;55.08
11806;BME280;5960;42.602;23.482;2022-10-31T03:32:46;93907.41;;;15.62;55.17
11806;BME280;5960;42.602;23.482;2022-10-31T03:35:17;93911.47;;;15.64;55.17
11806;BME280;5960;42.602;23.482;2022-10-31T03:37:46;93907.59;;;15.60;55.26
11806;BME280;5960;42.602;23.482;2022-10-31T03:40:15;93914.94;;;15.65;55.14
11806;BME280;5960;42.602;23.482;2022-10-31T03:42:47;93913.91;;;15.66;54.90
11806;BME280;5960;42.602;23.482;2022-10-31T03:45:20;93913.47;;;15.69;54.78
11806;BME280;5960;42.602;23.482;2022-10-31T03:47:51;93915.72;;;15.72;55.00
11806;BME280;5960;42.602;23.482;2022-10-31T03:50:18;93920.63;;;15.75;54.71
11806;BME280;5960;42.602;23.482;2022-10-31T03:52:49;93920.84;;;15.74;54.84
11806;BME280;5960;42.602;23.482;2022-10-31T03:55:20;93921.25;;;15.71;55.06
11806;BME280;5960;42.602;23.482;2022-10-31T03:57:53;93923.09;;;15.77;55.01
11806;BME280;5960;42.602;23.482;2022-10-31T04:00:24;93928.81;;;15.67;55.22
11806;BME280;5960;42.602;23.482;2022-10-31T04:02:56;93930.44;;;15.68;55.44
11806;BME280;5960;42.602;23.482;2022-10-31T04:05:24;93935.13;;;15.66;55.48
11806;BME280;5960;42.602;23.482;2022-10-31T04:07:53;93931.69;;;15.65;55.63
11806;BME280;5960;42.602;23.482;2022-10-31T04:10:22;93935.56;;;15.70;56.08
11806;BME280;5960;42.602;23.482;2022-10-31T04:12:53;93939.84;;;15.71;55.96
11806;BME280;5960;42.602;23.482;2022-10-31T04:15:23;93935.97;;;15.67;56.24
11806;BME280;5960;42.602;23.482;2022-10-31T04:17:55;93941.91;;;15.69;55.78
11806;BME280;5960;42.602;23.482;2022-10-31T04:20:30;93939.44;;;15.74;55.59
11806;BME280;5960;42.602;23.482;2022-10-31T04:22:57;93933.69;;;15.70;55.68
11806;BME280;5960;42.602;23.482;2022-10-31T04:25:23;93938.84;;;15.65;55.87
11806;BME280;5960;42.602;23.482;2022-10-31T04:27:50;93942.09;;;15.67;56.10
11806;BME280;5960;42.602;23.482;2022-10-31T04:30:17;93934.75;;;15.62;56.25
11806;BME280;5960;42.602;23.482;2022-10-31T04:32:44;93937.63;;;15.61;56.29
11806;BME280;5960;42.602;23.482;2022-10-31T04:35:12;93940.06;;;15.62;56.40
11806;BME280;5960;42.602;23.482;2022-10-31T04:37:38;93933.13;;;15.61;57.87
11806;BME280;5960;42.602;23.482;2022-10-31T04:40:06;93942.09;;;15.60;57.33
11806;BME280;5960;42.602;23.482;2022-10-31T04:42:33;93949.28;;;15.60;57.14
11806;BME280;5960;42.602;23.482;2022-10-31T04:45:00;93951.72;;;15.55;57.03
11806;BME280;5960;42.602;23.482;2022-10-31T04:47:26;93955.41;;;15.54;57.00
11806;BME280;5960;42.602;23.482;2022-10-31T04:49:53;93970.13;;;15.43;57.21
11806;BME280;5960;42.602;23.482;2022-10-31T04:52:21;93959.72;;;15.28;57.24
11806;BME280;5960;42.602;23.482;2022-10-31T04:54:48;93962.38;;;15.21;56.71
11806;BME280;5960;42.602;23.482;2022-10-31T04:57:14;93968.50;;;15.08;56.64
11806;BME280;5960;42.602;23.482;2022-10-31T04:59:41;93956.47;;;14.99;57.13
11806;BME280;5960;42.602;23.482;2022-10-31T05:02:08;93955.25;;;14.95;57.26
11806;BME280;5960;42.602;23.482;2022-10-31T05:04:35;93945.22;;;14.90;57.55
11806;BME280;5960;42.602;23.482;2022-10-31T05:07:01;93951.16;;;14.79;58.00
11806;BME280;5960;42.602;23.482;2022-10-31T05:09:29;93945.63;;;14.73;58.00
11806;BME280;5960;42.602;23.482;2022-10-31T05:11:56;93962.38;;;14.81;58.57
11806;BME280;5960;42.602;23.482;2022-10-31T05:14:23;93965.84;;;14.74;58.85
11806;BME280;5960;42.602;23.482;2022-10-31T05:16:50;93966.63;;;14.68;59.10
11806;BME280;5960;42.602;23.482;2022-10-31T05:19:16;93962.97;;;14.69;59.32
11806;BME280;5960;42.602;23.482;2022-10-31T05:21:43;93968.31;;;14.83;58.92
11806;BME280;5960;42.602;23.482;2022-10-31T05:24:10;93970.13;;;14.89;58.79
11806;BME280;5960;42.602;23.482;2022-10-31T05:26:38;93980.78;;;14.96;58.71
11806;BME280;5960;42.602;23.482;2022-10-31T05:29:05;93976.47;;;14.95;58.73
11806;BME280;5960;42.602;23.482;2022-10-31T05:31:31;93983.00;;;14.92;58.63
11806;BME280;5960;42.602;23.482;2022-10-31T05:33:58;93986.06;;;14.96;58.79
11806;BME280;5960;42.602;23.482;2022-10-31T05:36:25;93983.41;;;15.02;58.49
11806;BME280;5960;42.602;23.482;2022-10-31T05:38:52;93994.44;;;14.93;58.74
11806;BME280;5960;42.602;23.482;2022-10-31T05:41:19;93995.03;;;14.88;59.07
11806;BME280;5960;42.602;23.482;2022-10-31T05:43:47;93991.56;;;14.87;58.66
11806;BME280;5960;42.602;23.482;2022-10-31T05:46:13;93983.22;;;14.84;58.66
11806;BME280;5960;42.602;23.482;2022-10-31T05:48:40;93991.13;;;14.77;59.01
11806;BME280;5960;42.602;23.482;2022-10-31T05:51:07;93994.41;;;14.72;59.10
11806;BME280;5960;42.602;23.482;2022-10-31T05:53:33;93997.81;;;14.59;59.52
11806;BME280;5960;42.602;23.482;2022-10-31T05:56:00;94001.25;;;14.53;59.36
11806;BME280;5960;42.602;23.482;2022-10-31T05:58:27;94008.19;;;14.54;58.98
11806;BME280;5960;42.602;23.482;2022-10-31T06:00:55;94002.63;;;14.42;58.97
11806;BME280;5960;42.602;23.482;2022-10-31T06:03:22;94012.78;;;14.25;60.31
11806;BME280;5960;42.602;23.482;2022-10-31T06:05:48;94016.00;;;14.14;60.96
11806;BME280;5960;42.602;23.482;2022-10-31T06:08:15;94009.03;;;14.06;61.39
11806;BME280;5960;42.602;23.482;2022-10-31T06:10:42;94004.59;;;14.13;60.92
11806;BME280;5960;42.602;23.482;2022-10-31T06:13:09;94021.50;;;14.12;61.23
11806;BME280;5960;42.602;23.482;2022-10-31T06:15:35;94020.06;;;14.17;61.55
11806;BME280;5960;42.602;23.482;2022-10-31T06:18:05;94026.19;;;14.10;61.40
11806;BME280;5960;42.602;23.482;2022-10-31T06:20:32;94030.13;;;14.28;60.76
11806;BME280;5960;42.602;23.482;2022-10-31T06:22:59;94033.91;;;14.54;60.16
11806;BME280;5960;42.602;23.482;2022-10-31T06:25:25;94028.41;;;14.62;59.68
11806;BME280;5960;42.602;23.482;2022-10-31T06:27:53;94043.63;;;15.02;59.00
11806;BME280;5960;42.602;23.482;2022-10-31T06:30:20;94042.22;;;15.40;58.81
11806;BME280;5960;42.602;23.482;2022-10-31T06:32:46;94037.94;;;15.86;57.56
11806;BME280;5960;42.602;23.482;2022-10-31T06:35:16;94049.69;;;16.23;56.38
11806;BME280;5960;42.602;23.482;2022-10-31T06:37:42;94053.25;;;16.63;55.84
11806;BME280;5960;42.602;23.482;2022-10-31T06:40:10;94046.88;;;17.09;54.42
11806;BME280;5960;42.602;23.482;2022-10-31T06:42:37;94057.72;;;17.40;53.24
11806;BME280;5960;42.602;23.482;2022-10-31T06:45:04;94059.91;;;17.75;52.71
11806;BME280;5960;42.602;23.482;2022-10-31T06:47:31;94044.44;;;18.09;51.14
11806;BME280;5960;42.602;23.482;2022-10-31T06:49:58;94054.75;;;18.24;50.54
11806;BME280;5960;42.602;23.482;2022-10-31T06:52:26;94047.25;;;18.52;49.90
11806;BME280;5960;42.602;23.482;2022-10-31T06:54:52;94046.34;;;18.76;49.36
11806;BME280;5960;42.602;23.482;2022-10-31T06:57:19;94045.78;;;19.05;48.60
11806;BME280;5960;42.602;23.482;2022-10-31T06:59:46;94047.47;;;19.30;47.79
11806;BME280;5960;42.602;23.482;2022-10-31T07:02:13;94054.81;;;19.46;47.81
11806;BME280;5960;42.602;23.482;2022-10-31T07:04:39;94050.22;;;19.65;47.10
11806;BME280;5960;42.602;23.482;2022-10-31T07:07:06;94045.81;;;19.83;46.57
11806;BME280;5960;42.602;23.482;2022-10-31T07:09:34;94043.88;;;20.02;45.88
11806;BME280;5960;42.602;23.482;2022-10-31T07:12:01;94056.31;;;20.08;46.02
11806;BME280;5960;42.602;23.482;2022-10-31T07:14:28;94055.41;;;19.91;46.18
11806;BME280;5960;42.602;23.482;2022-10-31T07:16:54;94051.91;;;20.02;45.79
11806;BME280;5960;42.602;23.482;2022-10-31T07:19:21;94042.94;;;20.08;45.91
11806;BME280;5960;42.602;23.482;2022-10-31T07:21:48;94050.50;;;20.35;45.32
11806;BME280;5960;42.602;23.482;2022-10-31T07:24:14;94039.81;;;20.64;45.12
11806;BME280;5960;42.602;23.482;2022-10-31T07:26:42;94033.84;;;20.86;44.71
11806;BME280;5960;42.602;23.482;2022-10-31T07:29:11;94039.81;;;21.05;43.41
11806;BME280;5960;42.602;23.482;2022-10-31T07:31:37;94036.25;;;20.99;44.05
11806;BME280;5960;42.602;23.482;2022-10-31T07:34:05;94034.81;;;20.80;43.85
11806;BME280;5960;42.602;23.482;2022-10-31T07:36:31;94028.84;;;20.89;43.85
11806;BME280;5960;42.602;23.482;2022-10-31T07:38:58;94031.91;;;21.27;43.48
11806;BME280;5960;42.602;23.482;2022-10-31T07:41:25;94038.53;;;21.54;42.98
11806;BME280;5960;42.602;23.482;2022-10-31T07:43:53;94044.81;;;21.93;42.82
11806;BME280;5960;42.602;23.482;2022-10-31T07:46:21;94044.34;;;22.19;41.87
11806;BME280;5960;42.602;23.482;2022-10-31T07:48:48;94045.53;;;22.45;41.00
11806;BME280;5960;42.602;23.482;2022-10-31T07:51:15;94050.81;;;22.79;40.42
11806;BME280;5960;42.602;23.482;2022-10-31T07:53:41;94052.44;;;23.08;39.80
11806;BME280;5960;42.602;23.482;2022-10-31T07:56:08;94054.63;;;23.33;39.26
11806;BME280;5960;42.602;23.482;2022-10-31T07:58:35;94052.69;;;23.56;39.12
11806;BME280;5960;42.602;23.482;2022-10-31T08:01:03;94046.75;;;23.86;38.52
11806;BME280;5960;42.602;23.482;2022-10-31T08:03:29;94049.09;;;24.10;38.57
11806;BME280;5960;42.602;23.482;2022-10-31T08:05:56;94042.81;;;24.37;37.65
11806;BME280;5960;42.602;23.482;2022-10-31T08:08:23;94045.03;;;24.51;37.27
11806;BME280;5960;42.602;23.482;2022-10-31T08:10:53;94046.38;;;24.53;37.17
11806;BME280;5960;42.602;23.482;2022-10-31T08:13:20;94038.78;;;24.40;36.65
11806;BME280;5960;42.602;23.482;2022-10-31T08:15:46;94038.59;;;24.57;37.01
11806;BME280;5960;42.602;23.482;2022-10-31T08:18:17;94041.16;;;24.84;36.46
11806;BME280;5960;42.602;23.482;2022-10-31T08:20:44;94047.59;;;24.73;35.68
11806;BME280;5960;42.602;23.482;2022-10-31T08:23:11;94045.81;;;25.04;35.77
11806;BME280;5960;42.602;23.482;2022-10-31T08:25:39;94046.44;;;25.32;35.42
11806;BME280;5960;42.602;23.482;2022-10-31T08:28:08;94046.19;;;25.49;35.38
11806;BME280;5960;42.602;23.482;2022-10-31T08:30:36;94048.63;;;25.61;34.83
11806;BME280;5960;42.602;23.482;2022-10-31T08:33:04;94042.69;;;25.59;34.75
11806;BME280;5960;42.602;23.482;2022-10-31T08:35:33;94049.88;;;25.12;35.04
11806;BME280;5960;42.602;23.482;2022-10-31T08:38:00;94039.56;;;24.93;35.67
11806;BME280;5960;42.602;23.482;2022-10-31T08:40:28;94041.22;;;25.10;35.84
11806;BME280;5960;42.602;23.482;2022-10-31T08:42:57;94038.91;;;25.45;35.17
11806;BME280;5960;42.602;23.482;2022-10-31T08:45:24;94047.81;;;25.71;34.72
11806;BME280;5960;42.602;23.482;2022-10-31T08:47:51;94047.56;;;25.52;35.11
11806;BME280;5960;42.602;23.482;2022-10-31T08:50:17;94040.53;;;25.56;35.02
11806;BME280;5960;42.602;23.482;2022-10-31T08:52:46;94047.56;;;25.67;34.52
11806;BME280;5960;42.602;23.482;2022-10-31T08:55:12;94042.97;;;25.63;34.32
11806;BME280;5960;42.602;23.482;2022-10-31T08:57:39;94049.16;;;25.48;34.84
11806;BME280;5960;42.602;23.482;2022-10-31T09:00:07;94042.16;;;25.62;34.66
11806;BME280;5960;42.602;23.482;2022-10-31T09:02:34;94054.84;;;25.72;34.97
11806;BME280;5960;42.602;23.482;2022-10-31T09:05:02;94047.81;;;26.07;34.09
11806;BME280;5960;42.602;23.482;2022-10-31T09:07:29;94044.31;;;25.91;34.54
11806;BME280;5960;42.602;23.482;2022-10-31T09:09:57;94048.66;;;25.97;33.99
11806;BME280;5960;42.602;23.482;2022-10-31T09:12:24;94051.31;;;25.61;34.31
11806;BME280;5960;42.602;23.482;2022-10-31T09:14:51;94051.81;;;25.32;34.90
11806;BME280;5960;42.602;23.482;2022-10-31T09:17:17;94051.22;;;25.15;35.03
11806;BME280;5960;42.602;23.482;2022-10-31T09:19:44;94042.28;;;25.04;35.46
11806;BME280;5960;42.602;23.482;2022-10-31T09:22:11;94050.84;;;24.75;35.48
11806;BME280;5960;42.602;23.482;2022-10-31T09:24:37;94051.75;;;24.48;36.26
11806;BME280;5960;42.602;23.482;2022-10-31T09:27:05;94051.09;;;24.25;36.92
11806;BME280;5960;42.602;23.482;2022-10-31T09:29:33;94043.31;;;23.96;37.65
11806;BME280;5960;42.602;23.482;2022-10-31T09:32:00;94037.22;;;23.73;37.64
11806;BME280;5960;42.602;23.482;2022-10-31T09:34:27;94045.19;;;23.58;38.06
11806;BME280;5960;42.602;23.482;2022-10-31T09:36:53;94051.91;;;23.61;38.77
11806;BME280;5960;42.602;23.482;2022-10-31T09:39:20;94041.38;;;24.24;37.96
11806;BME280;5960;42.602;23.482;2022-10-31T09:42:00;94042.34;;;25.24;35.84
11806;BME280;5960;42.602;23.482;2022-10-31T09:44:39;94046.19;;;25.96;34.60
11806;BME280;5960;42.602;23.482;2022-10-31T09:47:16;94035.34;;;26.53;33.87
11806;BME280;5960;42.602;23.482;2022-10-31T09:49:55;94035.81;;;26.81;33.03
11806;BME280;5960;42.602;23.482;2022-10-31T09:52:28;94032.06;;;27.22;32.73
11806;BME280;5960;42.602;23.482;2022-10-31T09:55:00;94033.88;;;27.37;31.65
11806;BME280;5960;42.602;23.482;2022-10-31T09:57:32;94032.84;;;27.72;31.13
11806;BME280;5960;42.602;23.482;2022-10-31T10:00:03;94027.84;;;27.90;30.92
11806;BME280;5960;42.602;23.482;2022-10-31T10:02:35;94033.16;;;28.00;30.87
11806;BME280;5960;42.602;23.482;2022-10-31T10:05:08;94023.78;;;28.22;30.42
11806;BME280;5960;42.602;23.482;2022-10-31T10:07:41;94025.72;;;28.46;30.49
11806;BME280;5960;42.602;23.482;2022-10-31T10:10:16;94018.97;;;28.67;29.84
11806;BME280;5960;42.602;23.482;2022-10-31T10:13:03;94017.41;;;29.29;29.24
11806;BME280;5960;42.602;23.482;2022-10-31T10:15:49;94019.38;;;29.23;28.96
11806;BME280;5960;42.602;23.482;2022-10-31T10:18:26;94020.69;;;29.26;29.23
11806;BME280;5960;42.602;23.482;2022-10-31T10:21:08;94023.28;;;29.55;28.85
11806;BME280;5960;42.602;23.482;2022-10-31T10:23:45;94016.03;;;30.03;28.49
11806;BME280;5960;42.602;23.482;2022-10-31T10:26:18;94010.06;;;30.48;27.79
11806;BME280;5960;42.602;23.482;2022-10-31T10:28:48;94013.00;;;30.94;26.52
11806;BME280;5960;42.602;23.482;2022-10-31T10:31:21;94005.22;;;30.87;26.59
11806;BME280;5960;42.602;23.482;2022-10-31T10:34:01;94000.69;;;31.24;26.25
11806;BME280;5960;42.602;23.482;2022-10-31T10:36:32;94003.97;;;31.35;26.41
11806;BME280;5960;42.602;23.482;2022-10-31T10:39:05;94001.28;;;31.07;27.17
11806;BME280;5960;42.602;23.482;2022-10-31T10:41:43;93996.31;;;30.11;27.26
11806;BME280;5960;42.602;23.482;2022-10-31T10:44:11;93988.03;;;28.93;29.54
11806;BME280;5960;42.602;23.482;2022-10-31T10:46:43;93982.56;;;27.96;29.96
11806;BME280;5960;42.602;23.482;2022-10-31T10:49:34;93980.59;;;27.37;31.04
11806;BME280;5960;42.602;23.482;2022-10-31T10:52:10;93980.38;;;26.73;32.04
11806;BME280;5960;42.602;23.482;2022-10-31T10:54:59;93977.59;;;26.18;32.58
11806;BME280;5960;42.602;23.482;2022-10-31T10:57:32;93982.78;;;25.67;33.30
11806;BME280;5960;42.602;23.482;2022-10-31T11:00:15;93983.03;;;25.40;33.82
11806;BME280;5960;42.602;23.482;2022-10-31T11:02:44;93984.38;;;25.22;33.94
11806;BME280;5960;42.602;23.482;2022-10-31T11:05:18;93970.03;;;25.01;34.50
11806;BME280;5960;42.602;23.482;2022-10-31T11:07:46;93974.31;;;24.86;34.85
11806;BME280;5960;42.602;23.482;2022-10-31T11:10:15;93975.91;;;24.72;35.15
11806;BME280;5960;42.602;23.482;2022-10-31T11:12:43;93976.66;;;24.67;35.29
11806;BME280;5960;42.602;23.482;2022-10-31T11:15:19;93966.13;;;24.60;35.54
11806;BME280;5960;42.602;23.482;2022-10-31T11:17:50;93968.56;;;24.57;35.86
11806;BME280;5960;42.602;23.482;2022-10-31T11:20:30;93961.13;;;24.85;35.24
11806;BME280;5960;42.602;23.482;2022-10-31T11:23:04;93951.97;;;24.96;35.18
11806;BME280;5960;42.602;23.482;2022-10-31T11:25:31;93964.66;;;25.06;36.20
11806;BME280;5960;42.602;23.482;2022-10-31T11:28:03;93960.00;;;27.01;33.04
11806;BME280;5960;42.602;23.482;2022-10-31T11:30:35;93956.28;;;29.51;29.73
11806;BME280;5960;42.602;23.482;2022-10-31T11:33:04;93952.25;;;30.70;27.31
11806;BME280;5960;42.602;23.482;2022-10-31T11:35:30;93958.34;;;32.40;25.96
11806;BME280;5960;42.602;23.482;2022-10-31T11:37:58;93955.53;;;34.48;23.60
11806;BME280;5960;42.602;23.482;2022-10-31T11:40:27;93954.00;;;36.29;21.86
11806;BME280;5960;42.602;23.482;2022-10-31T11:42:55;93955.69;;;37.45;19.86
11806;BME280;5960;42.602;23.482;2022-10-31T11:45:31;93940.44;;;36.82;20.92
11806;BME280;5960;42.602;23.482;2022-10-31T11:48:00;93943.00;;;37.69;19.99
11806;BME280;5960;42.602;23.482;2022-10-31T11:50:33;93945.72;;;37.82;19.41
11806;BME280;5960;42.602;23.482;2022-10-31T11:53:02;93943.22;;;37.76;19.08
11806;BME280;5960;42.602;23.482;2022-10-31T11:55:32;93937.63;;;37.32;20.02
11806;BME280;5960;42.602;23.482;2022-10-31T11:57:59;93934.47;;;37.17;19.96
11806;BME280;5960;42.602;23.482;2022-10-31T12:00:28;93929.22;;;36.25;20.53
11806;BME280;5960;42.602;23.482;2022-10-31T12:03:11;93929.34;;;33.73;22.85
11806;BME280;5960;42.602;23.482;2022-10-31T12:05:42;93924.09;;;32.57;24.84
11806;BME280;5960;42.602;23.482;2022-10-31T12:08:12;93925.31;;;31.79;25.58
11806;BME280;5960;42.602;23.482;2022-10-31T12:10:46;93931.19;;;31.27;26.26
11806;BME280;5960;42.602;23.482;2022-10-31T12:13:30;93922.97;;;31.04;26.74
11806;BME280;5960;42.602;23.482;2022-10-31T12:16:17;93919.69;;;31.30;26.42
11806;BME280;5960;42.602;23.482;2022-10-31T12:18:56;93923.88;;;31.73;25.90
11806;BME280;5960;42.602;23.482;2022-10-31T12:24:32;93931.09;;;32.40;25.18
11806;BME280;5960;42.602;23.482;2022-10-31T12:27:11;93934.44;;;34.48;22.57
11806;BME280;5960;42.602;23.482;2022-10-31T12:29:52;93931.97;;;37.00;20.10
11806;BME280;5960;42.602;23.482;2022-10-31T12:32:32;93934.53;;;38.83;18.53
11806;BME280;5960;42.602;23.482;2022-10-31T12:35:17;93937.31;;;39.94;17.68
11806;BME280;5960;42.602;23.482;2022-10-31T12:37:55;93936.41;;;40.52;17.49
11806;BME280;5960;42.602;23.482;2022-10-31T12:40:37;93931.00;;;41.10;16.94
11806;BME280;5960;42.602;23.482;2022-10-31T12:43:20;93940.16;;;41.75;16.06
11806;BME280;5960;42.602;23.482;2022-10-31T12:45:53;93933.28;;;41.34;16.15
11806;BME280;5960;42.602;23.482;2022-10-31T12:48:34;93943.63;;;41.68;15.95
11806;BME280;5960;42.602;23.482;2022-10-31T12:51:10;93931.84;;;41.75;16.28
11806;BME280;5960;42.602;23.482;2022-10-31T12:53:49;93930.81;;;40.99;16.54
11806;BME280;5960;42.602;23.482;2022-10-31T12:56:31;93933.06;;;39.77;17.19
11806;BME280;5960;42.602;23.482;2022-10-31T12:59:08;93931.78;;;40.37;17.05
11806;BME280;5960;42.602;23.482;2022-10-31T13:01:43;93929.56;;;40.69;16.66
11806;BME280;5960;42.602;23.482;2022-10-31T13:04:16;93931.97;;;41.25;16.55
11806;BME280;5960;42.602;23.482;2022-10-31T13:06:48;93937.44;;;41.51;16.49
11806;BME280;5960;42.602;23.482;2022-10-31T13:09:19;93934.06;;;41.62;16.50
11806;BME280;5960;42.602;23.482;2022-10-31T13:11:51;93937.13;;;40.72;16.68
11806;BME280;5960;42.602;23.482;2022-10-31T13:14:26;93932.63;;;41.45;16.28
11806;BME280;5960;42.602;23.482;2022-10-31T13:16:54;93938.47;;;42.01;16.01
11806;BME280;5960;42.602;23.482;2022-10-31T13:19:25;93939.94;;;42.70;16.19
11806;BME280;5960;42.602;23.482;2022-10-31T13:21:58;93940.66;;;43.15;15.26